sensor_id;sensor_type;location;lat;lon;timestamp;P1;durP1;ratioP1;P2;durP2;ratioP2
35693;SDS011;21812;55.536;37.664;2023-09-12T00:01:49;19.00;;;14.25;;
35693;SDS011;21812;55.536;37.664;2023-09-12T00:04:15;18.63;;;13.10;;
35693;SDS011;21812;55.536;37.664;2023-09-12T00:06:42;24.33;;;14.18;;
35693;SDS011;21812;55.536;37.664;2023-09-12T00:09:08;22.98;;;14.48;;
35693;SDS011;21812;55.536;37.664;2023-09-12T00:11:34;15.75;;;12.05;;
35693;SDS011;21812;55.536;37.664;2023-09-12T00:14:00;19.63;;;13.77;;
35693;SDS011;21812;55.536;37.664;2023-09-12T00:16:26;21.55;;;14.57;;
35693;SDS011;21812;55.536;37.664;2023-09-12T00:18:51;23.35;;;15.30;;
35693;SDS011;21812;55.536;37.664;2023-09-12T00:21:17;21.42;;;14.23;;
35693;SDS011;21812;55.536;37.664;2023-09-12T00:23:43;21.25;;;15.02;;
35693;SDS011;21812;55.536;37.664;2023-09-12T00:26:08;18.67;;;14.80;;
35693;SDS011;21812;55.536;37.664;2023-09-12T00:28:34;21.75;;;15.35;;
35693;SDS011;21812;55.536;37.664;2023-09-12T00:31:00;24.95;;;15.32;;
35693;SDS011;21812;55.536;37.664;2023-09-12T00:33:27;20.15;;;15.05;;
35693;SDS011;21812;55.536;37.664;2023-09-12T00:35:53;21.90;;;16.13;;
35693;SDS011;21812;55.536;37.664;2023-09-12T00:38:19;23.77;;;15.77;;
35693;SDS011;21812;55.536;37.664;2023-09-12T00:40:44;24.08;;;16.70;;
35693;SDS011;21812;55.536;37.664;2023-09-12T00:43:10;22.10;;;16.15;;
35693;SDS011;21812;55.536;37.664;2023-09-12T00:45:36;23.08;;;16.25;;
35693;SDS011;21812;55.536;37.664;2023-09-12T00:48:02;25.50;;;16.42;;
35693;SDS011;21812;55.536;37.664;2023-09-12T00:50:30;19.98;;;14.55;;
35693;SDS011;21812;55.536;37.664;2023-09-12T00:52:57;23.77;;;16.20;;
35693;SDS011;21812;55.536;37.664;2023-09-12T00:55:23;19.70;;;14.10;;
35693;SDS011;21812;55.536;37.664;2023-09-12T00:57:49;18.10;;;13.57;;
35693;SDS011;21812;55.536;37.664;2023-09-12T01:00:16;21.05;;;13.43;;
35693;SDS011;21812;55.536;37.664;2023-09-12T01:02:43;21.45;;;14.00;;
35693;SDS011;21812;55.536;37.664;2023-09-12T01:05:14;23.33;;;15.40;;
35693;SDS011;21812;55.536;37.664;2023-09-12T01:07:40;24.05;;;17.17;;
35693;SDS011;21812;55.536;37.664;2023-09-12T01:10:08;19.80;;;14.45;;
35693;SDS011;21812;55.536;37.664;2023-09-12T01:12:35;26.70;;;15.45;;
35693;SDS011;21812;55.536;37.664;2023-09-12T01:15:01;21.42;;;15.18;;
35693;SDS011;21812;55.536;37.664;2023-09-12T01:17:31;19.23;;;14.88;;
35693;SDS011;21812;55.536;37.664;2023-09-12T01:19:57;22.45;;;16.48;;
35693;SDS011;21812;55.536;37.664;2023-09-12T01:27:55;26.83;;;16.23;;
35693;SDS011;21812;55.536;37.664;2023-09-12T01:30:23;23.10;;;15.80;;
35693;SDS011;21812;55.536;37.664;2023-09-12T01:32:53;27.38;;;17.35;;
35693;SDS011;21812;55.536;37.664;2023-09-12T01:35:19;23.40;;;16.75;;
35693;SDS011;21812;55.536;37.664;2023-09-12T01:37:45;26.40;;;17.02;;
35693;SDS011;21812;55.536;37.664;2023-09-12T01:40:11;22.45;;;14.85;;
35693;SDS011;21812;55.536;37.664;2023-09-12T01:42:40;24.52;;;16.02;;
35693;SDS011;21812;55.536;37.664;2023-09-12T01:45:09;24.35;;;16.65;;
35693;SDS011;21812;55.536;37.664;2023-09-12T01:47:37;22.17;;;15.30;;
35693;SDS011;21812;55.536;37.664;2023-09-12T01:50:05;23.08;;;16.17;;
35693;SDS011;21812;55.536;37.664;2023-09-12T01:52:33;22.17;;;16.35;;
35693;SDS011;21812;55.536;37.664;2023-09-12T01:55:01;25.45;;;17.55;;
35693;SDS011;21812;55.536;37.664;2023-09-12T01:57:29;23.48;;;16.83;;
35693;SDS011;21812;55.536;37.664;2023-09-12T01:59:57;25.15;;;16.20;;
35693;SDS011;21812;55.536;37.664;2023-09-12T02:02:22;22.02;;;15.77;;
35693;SDS011;21812;55.536;37.664;2023-09-12T02:05:02;23.10;;;16.65;;
35693;SDS011;21812;55.536;37.664;2023-09-12T02:07:36;24.98;;;16.35;;
35693;SDS011;21812;55.536;37.664;2023-09-12T02:10:03;23.70;;;17.25;;
35693;SDS011;21812;55.536;37.664;2023-09-12T02:12:31;23.35;;;16.83;;
35693;SDS011;21812;55.536;37.664;2023-09-12T02:14:58;22.05;;;16.48;;
35693;SDS011;21812;55.536;37.664;2023-09-12T02:17:24;25.95;;;17.02;;
35693;SDS011;21812;55.536;37.664;2023-09-12T02:19:51;23.88;;;16.08;;
35693;SDS011;21812;55.536;37.664;2023-09-12T02:22:16;24.70;;;15.98;;
35693;SDS011;21812;55.536;37.664;2023-09-12T02:24:42;25.52;;;17.55;;
35693;SDS011;21812;55.536;37.664;2023-09-12T02:27:08;21.77;;;14.77;;
35693;SDS011;21812;55.536;37.664;2023-09-12T02:29:35;24.98;;;16.25;;
35693;SDS011;21812;55.536;37.664;2023-09-12T02:32:00;20.80;;;15.63;;
35693;SDS011;21812;55.536;37.664;2023-09-12T02:34:26;30.27;;;16.90;;
35693;SDS011;21812;55.536;37.664;2023-09-12T02:36:52;24.08;;;15.98;;
35693;SDS011;21812;55.536;37.664;2023-09-12T02:39:19;23.17;;;15.75;;
35693;SDS011;21812;55.536;37.664;2023-09-12T02:41:45;21.17;;;15.40;;
35693;SDS011;21812;55.536;37.664;2023-09-12T02:44:11;22.52;;;16.00;;
35693;SDS011;21812;55.536;37.664;2023-09-12T02:46:37;25.70;;;16.48;;
35693;SDS011;21812;55.536;37.664;2023-09-12T02:49:03;21.00;;;15.70;;
35693;SDS011;21812;55.536;37.664;2023-09-12T02:51:29;23.20;;;15.63;;
35693;SDS011;21812;55.536;37.664;2023-09-12T02:53:56;29.15;;;17.50;;
35693;SDS011;21812;55.536;37.664;2023-09-12T02:56:22;27.98;;;16.15;;
35693;SDS011;21812;55.536;37.664;2023-09-12T02:58:48;24.15;;;16.58;;
35693;SDS011;21812;55.536;37.664;2023-09-12T03:01:18;25.35;;;16.23;;
35693;SDS011;21812;55.536;37.664;2023-09-12T03:03:46;24.25;;;16.40;;
35693;SDS011;21812;55.536;37.664;2023-09-12T03:06:13;19.63;;;15.00;;
35693;SDS011;21812;55.536;37.664;2023-09-12T03:08:41;24.70;;;15.90;;
35693;SDS011;21812;55.536;37.664;2023-09-12T03:11:07;25.40;;;16.67;;
35693;SDS011;21812;55.536;37.664;2023-09-12T03:13:34;27.50;;;15.98;;
35693;SDS011;21812;55.536;37.664;2023-09-12T03:16:02;24.42;;;15.98;;
35693;SDS011;21812;55.536;37.664;2023-09-12T03:18:28;23.08;;;15.68;;
35693;SDS011;21812;55.536;37.664;2023-09-12T03:20:54;29.38;;;17.70;;
35693;SDS011;21812;55.536;37.664;2023-09-12T03:23:20;21.13;;;15.57;;
35693;SDS011;21812;55.536;37.664;2023-09-12T03:25:46;23.60;;;16.50;;
35693;SDS011;21812;55.536;37.664;2023-09-12T03:28:13;22.35;;;15.93;;
35693;SDS011;21812;55.536;37.664;2023-09-12T03:30:39;22.83;;;15.73;;
35693;SDS011;21812;55.536;37.664;2023-09-12T03:33:06;20.48;;;13.85;;
35693;SDS011;21812;55.536;37.664;2023-09-12T03:35:34;20.50;;;13.50;;
35693;SDS011;21812;55.536;37.664;2023-09-12T03:38:00;20.30;;;14.25;;
35693;SDS011;21812;55.536;37.664;2023-09-12T03:40:29;24.77;;;15.98;;
35693;SDS011;21812;55.536;37.664;2023-09-12T03:42:56;21.45;;;14.15;;
35693;SDS011;21812;55.536;37.664;2023-09-12T03:45:23;21.15;;;13.77;;
35693;SDS011;21812;55.536;37.664;2023-09-12T03:47:49;20.75;;;13.90;;
35693;SDS011;21812;55.536;37.664;2023-09-12T03:50:15;22.83;;;16.45;;
35693;SDS011;21812;55.536;37.664;2023-09-12T03:52:41;19.98;;;14.27;;
35693;SDS011;21812;55.536;37.664;2023-09-12T03:55:08;26.90;;;14.70;;
35693;SDS011;21812;55.536;37.664;2023-09-12T03:57:34;24.05;;;15.48;;
35693;SDS011;21812;55.536;37.664;2023-09-12T03:59:59;22.95;;;14.93;;
35693;SDS011;21812;55.536;37.664;2023-09-12T04:02:25;24.58;;;14.05;;
35693;SDS011;21812;55.536;37.664;2023-09-12T04:04:51;26.70;;;16.20;;
35693;SDS011;21812;55.536;37.664;2023-09-12T04:07:18;28.30;;;17.00;;
35693;SDS011;21812;55.536;37.664;2023-09-12T04:09:44;25.75;;;16.42;;
35693;SDS011;21812;55.536;37.664;2023-09-12T04:12:10;22.50;;;16.40;;
35693;SDS011;21812;55.536;37.664;2023-09-12T04:14:35;33.47;;;27.98;;
35693;SDS011;21812;55.536;37.664;2023-09-12T04:17:02;28.50;;;22.73;;
35693;SDS011;21812;55.536;37.664;2023-09-12T04:19:30;30.25;;;23.45;;
35693;SDS011;21812;55.536;37.664;2023-09-12T04:21:56;36.15;;;29.80;;
35693;SDS011;21812;55.536;37.664;2023-09-12T04:24:21;27.52;;;18.65;;
35693;SDS011;21812;55.536;37.664;2023-09-12T04:26:47;25.58;;;17.67;;
35693;SDS011;21812;55.536;37.664;2023-09-12T04:29:13;28.60;;;19.33;;
35693;SDS011;21812;55.536;37.664;2023-09-12T04:31:39;27.27;;;19.77;;
35693;SDS011;21812;55.536;37.664;2023-09-12T04:34:05;28.35;;;16.48;;
35693;SDS011;21812;55.536;37.664;2023-09-12T04:36:30;32.13;;;19.05;;
35693;SDS011;21812;55.536;37.664;2023-09-12T04:38:56;30.05;;;20.23;;
35693;SDS011;21812;55.536;37.664;2023-09-12T04:41:22;32.20;;;18.52;;
35693;SDS011;21812;55.536;37.664;2023-09-12T04:43:48;31.67;;;20.00;;
35693;SDS011;21812;55.536;37.664;2023-09-12T04:46:13;27.25;;;17.75;;
35693;SDS011;21812;55.536;37.664;2023-09-12T04:48:40;35.30;;;19.08;;
35693;SDS011;21812;55.536;37.664;2023-09-12T04:51:05;34.70;;;19.45;;
35693;SDS011;21812;55.536;37.664;2023-09-12T04:53:31;76.07;;;22.48;;
35693;SDS011;21812;55.536;37.664;2023-09-12T04:56:01;36.20;;;19.08;;
35693;SDS011;21812;55.536;37.664;2023-09-12T04:58:28;42.33;;;19.25;;
35693;SDS011;21812;55.536;37.664;2023-09-12T05:00:54;25.75;;;18.02;;
35693;SDS011;21812;55.536;37.664;2023-09-12T05:03:24;25.08;;;15.88;;
35693;SDS011;21812;55.536;37.664;2023-09-12T05:05:50;27.83;;;17.48;;
35693;SDS011;21812;55.536;37.664;2023-09-12T05:08:16;30.70;;;19.33;;
35693;SDS011;21812;55.536;37.664;2023-09-12T05:10:44;23.67;;;15.13;;
35693;SDS011;21812;55.536;37.664;2023-09-12T05:13:10;25.17;;;15.50;;
35693;SDS011;21812;55.536;37.664;2023-09-12T05:15:37;23.48;;;14.25;;
35693;SDS011;21812;55.536;37.664;2023-09-12T05:18:05;29.90;;;16.92;;
35693;SDS011;21812;55.536;37.664;2023-09-12T05:20:32;20.13;;;14.30;;
35693;SDS011;21812;55.536;37.664;2023-09-12T05:22:58;26.75;;;15.27;;
35693;SDS011;21812;55.536;37.664;2023-09-12T05:25:23;30.33;;;14.73;;
35693;SDS011;21812;55.536;37.664;2023-09-12T05:27:49;27.17;;;17.10;;
35693;SDS011;21812;55.536;37.664;2023-09-12T05:30:15;24.50;;;12.98;;
35693;SDS011;21812;55.536;37.664;2023-09-12T05:32:41;33.35;;;19.83;;
35693;SDS011;21812;55.536;37.664;2023-09-12T05:35:07;19.65;;;13.43;;
35693;SDS011;21812;55.536;37.664;2023-09-12T05:37:33;20.42;;;14.43;;
35693;SDS011;21812;55.536;37.664;2023-09-12T05:39:59;21.00;;;13.88;;
35693;SDS011;21812;55.536;37.664;2023-09-12T05:42:24;19.55;;;12.20;;
35693;SDS011;21812;55.536;37.664;2023-09-12T05:44:50;23.35;;;15.43;;
35693;SDS011;21812;55.536;37.664;2023-09-12T05:47:20;26.42;;;17.38;;
35693;SDS011;21812;55.536;37.664;2023-09-12T05:49:46;20.48;;;12.73;;
35693;SDS011;21812;55.536;37.664;2023-09-12T05:52:12;28.40;;;17.25;;
35693;SDS011;21812;55.536;37.664;2023-09-12T05:54:41;24.42;;;15.50;;
35693;SDS011;21812;55.536;37.664;2023-09-12T05:57:08;19.60;;;12.32;;
35693;SDS011;21812;55.536;37.664;2023-09-12T05:59:36;24.23;;;15.93;;
35693;SDS011;21812;55.536;37.664;2023-09-12T06:02:02;20.10;;;12.55;;
35693;SDS011;21812;55.536;37.664;2023-09-12T06:04:30;31.75;;;19.02;;
35693;SDS011;21812;55.536;37.664;2023-09-12T06:06:55;18.17;;;10.93;;
35693;SDS011;21812;55.536;37.664;2023-09-12T06:09:21;20.63;;;12.10;;
35693;SDS011;21812;55.536;37.664;2023-09-12T06:11:47;26.38;;;15.93;;
35693;SDS011;21812;55.536;37.664;2023-09-12T06:14:12;19.27;;;12.68;;
35693;SDS011;21812;55.536;37.664;2023-09-12T06:16:38;18.77;;;12.38;;
35693;SDS011;21812;55.536;37.664;2023-09-12T06:19:04;44.80;;;24.02;;
35693;SDS011;21812;55.536;37.664;2023-09-12T06:21:29;103.25;;;43.35;;
35693;SDS011;21812;55.536;37.664;2023-09-12T06:24:18;81.53;;;37.30;;
35693;SDS011;21812;55.536;37.664;2023-09-12T06:26:49;47.80;;;23.13;;
35693;SDS011;21812;55.536;37.664;2023-09-12T06:29:15;27.05;;;16.58;;
35693;SDS011;21812;55.536;37.664;2023-09-12T06:31:41;30.90;;;15.65;;
35693;SDS011;21812;55.536;37.664;2023-09-12T06:34:07;23.60;;;16.20;;
35693;SDS011;21812;55.536;37.664;2023-09-12T06:36:34;25.58;;;13.50;;
35693;SDS011;21812;55.536;37.664;2023-09-12T06:39:00;28.08;;;13.40;;
35693;SDS011;21812;55.536;37.664;2023-09-12T06:41:26;23.13;;;13.38;;
35693;SDS011;21812;55.536;37.664;2023-09-12T06:43:53;23.40;;;13.00;;
35693;SDS011;21812;55.536;37.664;2023-09-12T06:46:22;26.00;;;13.82;;
35693;SDS011;21812;55.536;37.664;2023-09-12T06:48:48;20.30;;;12.93;;
35693;SDS011;21812;55.536;37.664;2023-09-12T06:51:15;24.42;;;12.15;;
35693;SDS011;21812;55.536;37.664;2023-09-12T06:53:41;27.08;;;12.95;;
35693;SDS011;21812;55.536;37.664;2023-09-12T06:56:07;32.90;;;15.85;;
35693;SDS011;21812;55.536;37.664;2023-09-12T06:58:33;30.70;;;14.43;;
35693;SDS011;21812;55.536;37.664;2023-09-12T07:01:02;27.65;;;14.88;;
35693;SDS011;21812;55.536;37.664;2023-09-12T07:03:30;25.67;;;13.77;;
35693;SDS011;21812;55.536;37.664;2023-09-12T07:05:56;30.25;;;12.68;;
35693;SDS011;21812;55.536;37.664;2023-09-12T07:08:22;32.65;;;13.77;;
35693;SDS011;21812;55.536;37.664;2023-09-12T07:10:48;21.50;;;14.77;;
35693;SDS011;21812;55.536;37.664;2023-09-12T07:13:13;20.70;;;14.40;;
35693;SDS011;21812;55.536;37.664;2023-09-12T07:15:39;20.02;;;13.63;;
35693;SDS011;21812;55.536;37.664;2023-09-12T07:18:05;24.85;;;16.05;;
35693;SDS011;21812;55.536;37.664;2023-09-12T07:20:34;23.67;;;15.00;;
35693;SDS011;21812;55.536;37.664;2023-09-12T07:23:00;21.95;;;15.23;;
35693;SDS011;21812;55.536;37.664;2023-09-12T07:25:26;21.27;;;16.40;;
35693;SDS011;21812;55.536;37.664;2023-09-12T07:27:52;22.65;;;16.15;;
35693;SDS011;21812;55.536;37.664;2023-09-12T07:30:18;27.27;;;17.83;;
35693;SDS011;21812;55.536;37.664;2023-09-12T07:32:44;24.15;;;17.10;;
35693;SDS011;21812;55.536;37.664;2023-09-12T07:35:10;23.13;;;18.20;;
35693;SDS011;21812;55.536;37.664;2023-09-12T07:37:36;25.42;;;18.10;;
35693;SDS011;21812;55.536;37.664;2023-09-12T07:40:02;26.42;;;18.38;;
35693;SDS011;21812;55.536;37.664;2023-09-12T07:42:35;24.63;;;19.50;;
35693;SDS011;21812;55.536;37.664;2023-09-12T07:45:04;27.00;;;19.40;;
35693;SDS011;21812;55.536;37.664;2023-09-12T07:47:31;24.13;;;17.65;;
35693;SDS011;21812;55.536;37.664;2023-09-12T07:49:57;30.50;;;19.95;;
35693;SDS011;21812;55.536;37.664;2023-09-12T07:52:24;26.95;;;18.92;;
35693;SDS011;21812;55.536;37.664;2023-09-12T07:54:50;28.30;;;17.88;;
35693;SDS011;21812;55.536;37.664;2023-09-12T07:57:18;23.85;;;17.45;;
35693;SDS011;21812;55.536;37.664;2023-09-12T07:59:44;28.55;;;18.25;;
35693;SDS011;21812;55.536;37.664;2023-09-12T08:02:10;24.92;;;17.20;;
35693;SDS011;21812;55.536;37.664;2023-09-12T08:04:38;25.30;;;17.65;;
35693;SDS011;21812;55.536;37.664;2023-09-12T08:07:03;23.60;;;16.38;;
35693;SDS011;21812;55.536;37.664;2023-09-12T08:09:47;25.30;;;17.85;;
35693;SDS011;21812;55.536;37.664;2023-09-12T08:12:23;27.15;;;18.10;;
35693;SDS011;21812;55.536;37.664;2023-09-12T08:14:51;19.90;;;14.88;;
35693;SDS011;21812;55.536;37.664;2023-09-12T08:17:17;26.00;;;16.90;;
35693;SDS011;21812;55.536;37.664;2023-09-12T08:19:43;25.48;;;16.40;;
35693;SDS011;21812;55.536;37.664;2023-09-12T08:22:09;24.95;;;17.83;;
35693;SDS011;21812;55.536;37.664;2023-09-12T08:24:36;19.00;;;14.80;;
35693;SDS011;21812;55.536;37.664;2023-09-12T08:27:03;22.25;;;14.90;;
35693;SDS011;21812;55.536;37.664;2023-09-12T08:29:29;30.90;;;19.60;;
35693;SDS011;21812;55.536;37.664;2023-09-12T08:31:56;20.50;;;14.27;;
35693;SDS011;21812;55.536;37.664;2023-09-12T08:34:22;20.35;;;13.10;;
35693;SDS011;21812;55.536;37.664;2023-09-12T08:36:48;16.88;;;13.35;;
35693;SDS011;21812;55.536;37.664;2023-09-12T08:39:14;21.30;;;11.85;;
35693;SDS011;21812;55.536;37.664;2023-09-12T08:41:42;18.42;;;12.50;;
35693;SDS011;21812;55.536;37.664;2023-09-12T08:44:08;14.82;;;11.65;;
35693;SDS011;21812;55.536;37.664;2023-09-12T08:46:34;14.65;;;10.82;;
35693;SDS011;21812;55.536;37.664;2023-09-12T08:49:03;15.80;;;11.48;;
35693;SDS011;21812;55.536;37.664;2023-09-12T08:51:31;15.85;;;11.07;;
35693;SDS011;21812;55.536;37.664;2023-09-12T08:53:57;13.95;;;10.55;;
35693;SDS011;21812;55.536;37.664;2023-09-12T08:56:23;20.55;;;15.57;;
35693;SDS011;21812;55.536;37.664;2023-09-12T08:58:50;17.42;;;11.45;;
35693;SDS011;21812;55.536;37.664;2023-09-12T09:01:17;15.80;;;10.85;;
35693;SDS011;21812;55.536;37.664;2023-09-12T09:03:44;17.30;;;10.93;;
35693;SDS011;21812;55.536;37.664;2023-09-12T09:06:10;20.60;;;11.20;;
35693;SDS011;21812;55.536;37.664;2023-09-12T09:08:38;16.77;;;10.23;;
35693;SDS011;21812;55.536;37.664;2023-09-12T09:11:04;18.98;;;11.63;;
35693;SDS011;21812;55.536;37.664;2023-09-12T09:13:32;13.57;;;10.23;;
35693;SDS011;21812;55.536;37.664;2023-09-12T09:16:17;13.88;;;9.52;;
35693;SDS011;21812;55.536;37.664;2023-09-12T09:21:20;16.20;;;9.35;;
35693;SDS011;21812;55.536;37.664;2023-09-12T09:26:16;13.55;;;9.85;;
35693;SDS011;21812;55.536;37.664;2023-09-12T09:28:42;17.35;;;8.98;;
35693;SDS011;21812;55.536;37.664;2023-09-12T09:31:12;10.75;;;7.35;;
35693;SDS011;21812;55.536;37.664;2023-09-12T09:33:39;12.50;;;8.00;;
35693;SDS011;21812;55.536;37.664;2023-09-12T09:36:06;9.98;;;7.72;;
35693;SDS011;21812;55.536;37.664;2023-09-12T09:38:36;9.15;;;6.53;;
35693;SDS011;21812;55.536;37.664;2023-09-12T09:41:08;8.40;;;5.78;;
35693;SDS011;21812;55.536;37.664;2023-09-12T09:43:35;9.88;;;7.47;;
35693;SDS011;21812;55.536;37.664;2023-09-12T09:46:01;11.45;;;7.40;;
35693;SDS011;21812;55.536;37.664;2023-09-12T09:48:28;9.88;;;6.70;;
35693;SDS011;21812;55.536;37.664;2023-09-12T09:51:01;9.43;;;7.35;;
35693;SDS011;21812;55.536;37.664;2023-09-12T09:53:28;10.18;;;6.15;;
35693;SDS011;21812;55.536;37.664;2023-09-12T09:56:07;10.38;;;6.45;;
35693;SDS011;21812;55.536;37.664;2023-09-12T09:58:33;7.93;;;5.97;;
35693;SDS011;21812;55.536;37.664;2023-09-12T10:00:59;7.45;;;6.00;;
35693;SDS011;21812;55.536;37.664;2023-09-12T10:03:26;7.68;;;5.55;;
35693;SDS011;21812;55.536;37.664;2023-09-12T10:05:54;9.40;;;6.47;;
35693;SDS011;21812;55.536;37.664;2023-09-12T10:08:22;10.38;;;6.28;;
35693;SDS011;21812;55.536;37.664;2023-09-12T10:10:50;9.25;;;5.32;;
35693;SDS011;21812;55.536;37.664;2023-09-12T10:13:17;9.50;;;5.55;;
35693;SDS011;21812;55.536;37.664;2023-09-12T10:15:44;6.18;;;5.10;;
35693;SDS011;21812;55.536;37.664;2023-09-12T10:18:14;6.13;;;4.82;;
35693;SDS011;21812;55.536;37.664;2023-09-12T10:20:50;6.75;;;4.90;;
35693;SDS011;21812;55.536;37.664;2023-09-12T10:23:23;8.25;;;5.50;;
35693;SDS011;21812;55.536;37.664;2023-09-12T10:26:13;6.32;;;5.07;;
35693;SDS011;21812;55.536;37.664;2023-09-12T10:28:39;5.93;;;5.00;;
35693;SDS011;21812;55.536;37.664;2023-09-12T10:31:07;7.38;;;5.15;;
35693;SDS011;21812;55.536;37.664;2023-09-12T10:33:36;7.80;;;5.22;;
35693;SDS011;21812;55.536;37.664;2023-09-12T10:36:05;6.90;;;5.07;;
35693;SDS011;21812;55.536;37.664;2023-09-12T10:38:34;5.78;;;4.93;;
35693;SDS011;21812;55.536;37.664;2023-09-12T10:41:05;6.57;;;4.95;;
35693;SDS011;21812;55.536;37.664;2023-09-12T10:43:35;6.05;;;5.05;;
35693;SDS011;21812;55.536;37.664;2023-09-12T10:46:02;6.45;;;5.25;;
35693;SDS011;21812;55.536;37.664;2023-09-12T10:48:29;7.07;;;4.80;;
35693;SDS011;21812;55.536;37.664;2023-09-12T10:50:58;9.77;;;4.63;;
35693;SDS011;21812;55.536;37.664;2023-09-12T10:53:26;7.85;;;4.43;;
35693;SDS011;21812;55.536;37.664;2023-09-12T10:55:57;9.27;;;5.13;;
35693;SDS011;21812;55.536;37.664;2023-09-12T11:01:33;9.57;;;6.32;;
35693;SDS011;21812;55.536;37.664;2023-09-12T11:04:29;7.30;;;5.13;;
35693;SDS011;21812;55.536;37.664;2023-09-12T11:06:46;5.93;;;4.85;;
35693;SDS011;21812;55.536;37.664;2023-09-12T11:09:25;8.57;;;4.97;;
35693;SDS011;21812;55.536;37.664;2023-09-12T11:11:56;7.43;;;5.28;;
35693;SDS011;21812;55.536;37.664;2023-09-12T11:14:24;5.72;;;4.75;;
35693;SDS011;21812;55.536;37.664;2023-09-12T11:19:44;8.68;;;5.28;;
35693;SDS011;21812;55.536;37.664;2023-09-12T11:22:21;7.93;;;5.35;;
35693;SDS011;21812;55.536;37.664;2023-09-12T11:24:47;8.25;;;5.72;;
35693;SDS011;21812;55.536;37.664;2023-09-12T11:27:13;6.18;;;4.63;;
35693;SDS011;21812;55.536;37.664;2023-09-12T11:29:39;7.78;;;4.32;;
35693;SDS011;21812;55.536;37.664;2023-09-12T11:32:06;6.85;;;4.53;;
35693;SDS011;21812;55.536;37.664;2023-09-12T11:34:37;6.72;;;4.43;;
35693;SDS011;21812;55.536;37.664;2023-09-12T11:37:10;7.28;;;4.05;;
35693;SDS011;21812;55.536;37.664;2023-09-12T11:39:47;7.95;;;4.32;;
35693;SDS011;21812;55.536;37.664;2023-09-12T11:42:15;5.93;;;5.03;;
35693;SDS011;21812;55.536;37.664;2023-09-12T11:44:41;5.63;;;4.93;;
35693;SDS011;21812;55.536;37.664;2023-09-12T11:47:10;9.50;;;5.07;;
35693;SDS011;21812;55.536;37.664;2023-09-12T11:49:36;7.78;;;5.35;;
35693;SDS011;21812;55.536;37.664;2023-09-12T11:52:10;6.20;;;5.55;;
35693;SDS011;21812;55.536;37.664;2023-09-12T11:54:38;7.90;;;5.40;;
35693;SDS011;21812;55.536;37.664;2023-09-12T11:57:08;12.30;;;5.60;;
35693;SDS011;21812;55.536;37.664;2023-09-12T11:59:37;6.40;;;4.80;;
35693;SDS011;21812;55.536;37.664;2023-09-12T12:02:08;10.13;;;5.03;;
35693;SDS011;21812;55.536;37.664;2023-09-12T12:04:35;5.25;;;4.75;;
35693;SDS011;21812;55.536;37.664;2023-09-12T12:07:01;9.55;;;5.22;;
35693;SDS011;21812;55.536;37.664;2023-09-12T12:09:29;7.75;;;4.70;;
35693;SDS011;21812;55.536;37.664;2023-09-12T12:11:56;6.95;;;5.45;;
35693;SDS011;21812;55.536;37.664;2023-09-12T12:14:25;7.53;;;5.97;;
35693;SDS011;21812;55.536;37.664;2023-09-12T12:16:52;8.85;;;4.47;;
35693;SDS011;21812;55.536;37.664;2023-09-12T12:19:17;10.82;;;4.68;;
35693;SDS011;21812;55.536;37.664;2023-09-12T12:21:43;7.25;;;5.18;;
35693;SDS011;21812;55.536;37.664;2023-09-12T12:24:11;11.07;;;5.63;;
35693;SDS011;21812;55.536;37.664;2023-09-12T12:26:42;7.90;;;5.10;;
35693;SDS011;21812;55.536;37.664;2023-09-12T12:29:08;6.18;;;5.55;;
35693;SDS011;21812;55.536;37.664;2023-09-12T12:31:35;8.90;;;5.13;;
35693;SDS011;21812;55.536;37.664;2023-09-12T12:34:02;6.68;;;4.53;;
35693;SDS011;21812;55.536;37.664;2023-09-12T12:36:29;8.55;;;5.35;;
35693;SDS011;21812;55.536;37.664;2023-09-12T12:38:55;8.60;;;5.28;;
35693;SDS011;21812;55.536;37.664;2023-09-12T12:44:01;7.45;;;3.88;;
35693;SDS011;21812;55.536;37.664;2023-09-12T12:46:28;4.72;;;4.15;;
35693;SDS011;21812;55.536;37.664;2023-09-12T12:48:54;6.32;;;5.13;;
35693;SDS011;21812;55.536;37.664;2023-09-12T12:51:22;5.63;;;4.30;;
35693;SDS011;21812;55.536;37.664;2023-09-12T12:53:50;4.57;;;4.13;;
35693;SDS011;21812;55.536;37.664;2023-09-12T12:56:17;5.25;;;4.75;;
35693;SDS011;21812;55.536;37.664;2023-09-12T12:58:45;5.65;;;4.65;;
35693;SDS011;21812;55.536;37.664;2023-09-12T13:01:20;6.38;;;4.50;;
35693;SDS011;21812;55.536;37.664;2023-09-12T13:03:46;6.07;;;4.75;;
35693;SDS011;21812;55.536;37.664;2023-09-12T13:06:15;6.88;;;3.90;;
35693;SDS011;21812;55.536;37.664;2023-09-12T13:08:46;5.30;;;4.30;;
35693;SDS011;21812;55.536;37.664;2023-09-12T13:11:12;4.72;;;4.20;;
35693;SDS011;21812;55.536;37.664;2023-09-12T13:13:39;5.35;;;4.03;;
35693;SDS011;21812;55.536;37.664;2023-09-12T13:16:07;4.03;;;3.65;;
35693;SDS011;21812;55.536;37.664;2023-09-12T13:18:37;4.15;;;3.80;;
35693;SDS011;21812;55.536;37.664;2023-09-12T13:21:04;4.43;;;4.03;;
35693;SDS011;21812;55.536;37.664;2023-09-12T13:23:30;4.03;;;3.63;;
35693;SDS011;21812;55.536;37.664;2023-09-12T13:25:56;6.32;;;3.88;;
35693;SDS011;21812;55.536;37.664;2023-09-12T13:28:23;4.13;;;3.72;;
35693;SDS011;21812;55.536;37.664;2023-09-12T13:30:52;4.32;;;3.92;;
35693;SDS011;21812;55.536;37.664;2023-09-12T13:33:18;6.95;;;3.90;;
35693;SDS011;21812;55.536;37.664;2023-09-12T13:35:45;3.72;;;3.08;;
35693;SDS011;21812;55.536;37.664;2023-09-12T13:38:12;3.33;;;3.03;;
35693;SDS011;21812;55.536;37.664;2023-09-12T13:40:40;7.00;;;4.57;;
35693;SDS011;21812;55.536;37.664;2023-09-12T13:43:07;4.63;;;3.83;;
35693;SDS011;21812;55.536;37.664;2023-09-12T13:45:34;6.28;;;3.55;;
35693;SDS011;21812;55.536;37.664;2023-09-12T13:48:01;3.80;;;3.50;;
35693;SDS011;21812;55.536;37.664;2023-09-12T13:50:29;5.80;;;4.07;;
35693;SDS011;21812;55.536;37.664;2023-09-12T13:52:57;7.65;;;4.70;;
35693;SDS011;21812;55.536;37.664;2023-09-12T13:55:25;4.78;;;4.20;;
35693;SDS011;21812;55.536;37.664;2023-09-12T13:57:52;6.28;;;4.53;;
35693;SDS011;21812;55.536;37.664;2023-09-12T14:00:18;6.00;;;4.07;;
35693;SDS011;21812;55.536;37.664;2023-09-12T14:02:44;7.80;;;3.70;;
35693;SDS011;21812;55.536;37.664;2023-09-12T14:05:13;7.85;;;4.90;;
35693;SDS011;21812;55.536;37.664;2023-09-12T14:07:39;5.53;;;4.22;;
35693;SDS011;21812;55.536;37.664;2023-09-12T14:10:06;6.53;;;5.18;;
35693;SDS011;21812;55.536;37.664;2023-09-12T14:12:32;7.60;;;4.78;;
35693;SDS011;21812;55.536;37.664;2023-09-12T14:15:00;4.38;;;3.70;;
35693;SDS011;21812;55.536;37.664;2023-09-12T14:17:29;5.80;;;4.35;;
35693;SDS011;21812;55.536;37.664;2023-09-12T14:19:55;7.90;;;4.45;;
35693;SDS011;21812;55.536;37.664;2023-09-12T14:22:21;4.00;;;3.60;;
35693;SDS011;21812;55.536;37.664;2023-09-12T14:24:47;5.85;;;4.68;;
35693;SDS011;21812;55.536;37.664;2023-09-12T14:27:13;5.63;;;4.28;;
35693;SDS011;21812;55.536;37.664;2023-09-12T14:29:38;5.90;;;3.80;;
35693;SDS011;21812;55.536;37.664;2023-09-12T14:32:04;7.13;;;4.35;;
35693;SDS011;21812;55.536;37.664;2023-09-12T14:34:30;6.13;;;4.15;;
35693;SDS011;21812;55.536;37.664;2023-09-12T14:36:58;7.82;;;4.68;;
35693;SDS011;21812;55.536;37.664;2023-09-12T14:39:24;10.18;;;4.43;;